Time;durP1;ratioP1;P1;durP2;ratioP2;P2;SDS_P1;SDS_P2;PMS_P1;PMS_P2;Temp;Humidity;BMP_temperature;BMP_pressure;BME280_temperature;BME280_humidity;BME280_pressure;Samples;Min_cycle;Max_cycle;Signal;HPM_P1;HPM_P2
2021/05/21 00:00:10;;;;;;;;;14.75;14.75;;;;;18.63;63.36;100282.38;5134342;27;8830;-80
2021/05/21 00:03:06;;;;;;;;;10.50;10.50;;;;;18.64;63.22;100286.03;5120348;27;8839;-81
2021/05/21 00:06:01;;;;;;;;;13.25;13.25;;;;;18.63;63.11;100282.38;5134047;27;8887;-81
2021/05/21 00:08:58;;;;;;;;;13.25;13.25;;;;;18.63;62.86;100276.78;5120280;27;8846;-79
2021/05/21 00:11:55;;;;;;;;;14.50;14.50;;;;;18.81;63.88;100276.88;5120427;27;8827;-80
2021/05/21 00:14:51;;;;;;;;;8.50;8.50;;;;;18.53;63.78;100283.16;5120085;27;8856;-81
2021/05/21 00:17:46;;;;;;;;;9.00;9.00;;;;;18.58;64.80;100277.19;5133680;27;8847;-81
2021/05/21 00:20:43;;;;;;;;;8.00;8.00;;;;;18.52;64.53;100275.97;5120119;27;8829;-80
2021/05/21 00:23:39;;;;;;;;;7.50;7.25;;;;;18.42;64.79;100276.75;5133517;27;8835;-81
2021/05/21 00:26:37;;;;;;;;;8.25;8.25;;;;;18.41;65.83;100284.34;5120626;27;8850;-81
2021/05/21 00:29:33;;;;;;;;;5.50;5.50;;;;;18.53;65.33;100281.16;5133135;27;8815;-80
2021/05/21 00:32:30;;;;;;;;;5.75;5.75;;;;;18.45;66.07;100290.75;5119830;27;8835;-79
2021/05/21 00:35:25;;;;;;;;;5.50;5.50;;;;;18.17;66.55;100304.59;5134743;27;8827;-79
2021/05/21 00:38:24;;;;;;;;;4.00;4.00;;;;;18.28;66.39;100303.47;5125568;27;9715;-81
2021/05/21 00:41:23;;;;;;;;;4.00;4.00;;;;;18.11;66.79;100295.78;5140506;27;8867;-81
2021/05/21 00:44:18;;;;;;;;;4.00;4.00;;;;;17.82;67.79;100283.63;5133330;27;8853;-78
2021/05/21 00:47:15;;;;;;;;;4.25;4.25;;;;;17.74;68.40;100290.38;5133597;27;9627;-81
2021/05/21 00:50:11;;;;;;;;;4.50;4.50;;;;;17.81;67.82;100300.78;5133193;27;8901;-80
2021/05/21 00:53:10;;;;;;;;;3.75;3.75;;;;;17.70;67.79;100315.50;5133335;27;8886;-79
2021/05/21 00:56:08;;;;;;;;;4.00;4.00;;;;;17.75;67.75;100300.34;5120056;27;9005;-80
2021/05/21 00:59:04;;;;;;;;;3.50;3.50;;;;;17.87;67.49;100314.03;5132906;27;8857;-80
2021/05/21 01:02:00;;;;;;;;;3.50;3.50;;;;;17.66;67.59;100308.25;5133968;27;8839;-83
2021/05/21 01:04:55;;;;;;;;;3.25;3.25;;;;;17.58;67.58;100301.00;5133838;27;8827;-82
2021/05/21 01:07:51;;;;;;;;;4.75;4.75;;;;;17.66;67.47;100317.44;5130832;27;8848;-82
2021/05/21 01:10:48;;;;;;;;;4.00;4.00;;;;;17.72;67.10;100309.53;5154458;27;9656;-82
2021/05/21 01:13:45;;;;;;;;;4.00;4.00;;;;;17.69;67.06;100315.84;5154075;27;8840;-83
2021/05/21 01:16:40;;;;;;;;;3.00;3.00;;;;;17.71;65.88;100307.91;5154957;27;8825;-84
2021/05/21 01:19:36;;;;;;;;;4.00;4.00;;;;;17.66;65.73;100311.84;5153642;27;8845;-82
2021/05/21 01:22:32;;;;;;;;;3.50;3.50;;;;;17.67;65.01;100313.44;5141688;27;8817;-82
2021/05/21 01:25:28;;;;;;;;;3.00;3.00;;;;;17.84;63.82;100314.78;5140021;27;8861;-81
2021/05/21 01:28:24;;;;;;;;;3.00;3.00;;;;;17.83;63.04;100318.78;5153935;27;8809;-82
2021/05/21 01:31:23;;;;;;;;;2.75;2.75;;;;;17.51;61.15;100326.91;5132966;27;8847;-77
2021/05/21 01:34:18;;;;;;;;;2.75;2.75;;;;;17.80;60.84;100311.19;5133475;27;8928;-78
2021/05/21 01:37:16;;;;;;;;;2.25;2.25;;;;;17.64;59.17;100336.59;5111974;28;8842;-83
2021/05/21 01:40:13;;;;;;;;;2.50;2.50;;;;;17.73;58.28;100311.94;5125247;27;8867;-84
2021/05/21 01:43:10;;;;;;;;;2.00;2.00;;;;;17.41;58.41;100316.44;5132363;27;8851;-78
2021/05/21 01:46:06;;;;;;;;;2.00;2.00;;;;;17.56;58.35;100320.13;5134939;27;8850;-82
2021/05/21 01:49:02;;;;;;;;;3.00;3.00;;;;;17.79;58.30;100312.38;5121819;28;8877;-82
2021/05/21 01:52:00;;;;;;;;;1.50;1.50;;;;;17.76;59.22;100316.75;5116634;28;8845;-82
2021/05/21 01:54:56;;;;;;;;;2.25;2.25;;;;;17.64;57.72;100305.06;5116528;28;8956;-82
2021/05/21 01:57:51;;;;;;;;;2.00;2.00;;;;;17.46;58.58;100305.69;5102364;28;8865;-79
2021/05/21 02:00:47;;;;;;;;;2.25;2.25;;;;;17.62;58.46;100308.22;5117065;28;8935;-79
2021/05/21 02:03:43;;;;;;;;;1.00;1.00;;;;;17.33;59.68;100318.38;5117086;28;8831;-80
2021/05/21 02:06:38;;;;;;;;;2.25;2.25;;;;;17.39;60.57;100316.81;5135581;27;8863;-79
2021/05/21 02:09:54;;;;;;;;;2.25;2.25;;;;;17.24;60.66;100313.06;5131243;27;8804;-76
2021/05/21 02:12:50;;;;;;;;;2.50;2.50;;;;;17.33;60.35;100321.16;5135486;27;8843;-78
2021/05/21 02:15:47;;;;;;;;;3.00;3.00;;;;;17.03;60.51;100323.28;5135223;27;8848;-76
2021/05/21 02:18:44;;;;;;;;;2.00;2.00;;;;;17.13;60.72;100301.00;5136600;27;8840;-78
2021/05/21 02:21:49;;;;;;;;;2.00;2.00;;;;;17.34;61.05;100313.59;5135177;27;9561;-77
2021/05/21 02:24:45;;;;;;;;;4.00;4.00;;;;;17.05;61.40;100323.69;5136731;27;8898;-80
2021/05/21 02:27:43;;;;;;;;;3.75;3.75;;;;;16.83;61.92;100334.63;5136637;27;8855;-83
2021/05/21 02:30:38;;;;;;;;;2.25;2.25;;;;;17.06;61.41;100323.28;5122446;27;8828;-82
2021/05/21 02:33:34;;;;;;;;;3.75;3.75;;;;;17.17;65.03;100335.38;5136922;27;8824;-80
2021/05/21 02:36:29;;;;;;;;;3.50;3.50;;;;;17.10;61.59;100334.50;5134916;27;8870;-76
2021/05/21 02:39:28;;;;;;;;;4.00;4.00;;;;;17.10;62.12;100328.91;5136398;27;8908;-80
2021/05/21 02:42:25;;;;;;;;;2.00;2.00;;;;;16.70;62.81;100335.25;5127260;27;8834;-77
2021/05/21 02:45:22;;;;;;;;;2.25;2.25;;;;;16.99;62.88;100330.78;5128669;27;8859;-85
2021/05/21 02:48:18;;;;;;;;;3.00;3.00;;;;;16.64;63.08;100330.00;5134808;27;8832;-79
2021/05/21 02:51:13;;;;;;;;;3.00;3.00;;;;;16.75;63.66;100349.69;5125688;27;8902;-84
2021/05/21 02:54:09;;;;;;;;;2.50;2.50;;;;;16.80;63.93;100349.34;5115756;28;8915;-84
2021/05/21 02:57:05;;;;;;;;;2.25;2.25;;;;;16.71;63.70;100334.06;5102173;28;8835;-80
2021/05/21 03:00:01;;;;;;;;;3.00;3.00;;;;;16.68;63.48;100353.16;5133882;27;8821;-83
2021/05/21 03:02:56;;;;;;;;;2.25;2.25;;;;;16.52;63.92;100346.19;5114629;28;8835;-87
2021/05/21 03:05:55;;;;;;;;;2.25;2.25;;;;;16.53;64.06;100353.38;5120423;27;8874;-81
2021/05/21 03:08:51;;;;;;;;;5.00;5.00;;;;;16.68;64.61;100352.34;5117336;28;8838;-82
2021/05/21 03:11:46;;;;;;;;;3.00;3.00;;;;;16.48;64.46;100367.66;5115769;27;8830;-83
2021/05/21 03:14:42;;;;;;;;;2.00;2.00;;;;;16.67;64.55;100362.72;5135803;27;8866;-82
2021/05/21 03:17:42;;;;;;;;;3.75;3.75;;;;;16.72;65.03;100369.19;5132572;27;8894;-86
2021/05/21 03:20:37;;;;;;;;;3.50;3.50;;;;;16.77;64.35;100366.84;5122026;27;8872;-83
2021/05/21 03:23:33;;;;;;;;;3.25;3.25;;;;;16.69;64.45;100367.97;5137318;27;8889;-86
2021/05/21 03:26:29;;;;;;;;;5.00;5.00;;;;;16.76;65.28;100376.41;5136742;27;8828;-86
2021/05/21 03:29:24;;;;;;;;;2.75;2.75;;;;;16.59;64.69;100372.19;5126680;27;8920;-85
2021/05/21 03:32:20;;;;;;;;;3.25;3.25;;;;;16.59;65.49;100377.78;5128378;27;8838;-81
2021/05/21 03:35:17;;;;;;;;;4.25;4.25;;;;;16.52;64.72;100360.13;5136071;27;8865;-83
2021/05/21 03:38:13;;;;;;;;;3.00;3.00;;;;;16.59;64.78;100372.19;5133469;27;8827;-83
2021/05/21 03:41:10;;;;;;;;;2.75;2.75;;;;;16.40;64.93;100366.75;5141233;27;8843;-81
2021/05/21 03:44:06;;;;;;;;;4.00;3.75;;;;;16.65;64.33;100367.09;5139101;27;8802;-86
2021/05/21 03:47:02;;;;;;;;;4.25;4.25;;;;;16.42;64.50;100375.56;5138573;27;8963;-79
2021/05/21 03:49:58;;;;;;;;;2.00;2.00;;;;;16.48;64.28;100364.84;5143789;27;8842;-87
2021/05/21 03:52:54;;;;;;;;;2.00;2.00;;;;;16.25;64.31;100365.75;5128328;27;9632;-85
2021/05/21 03:55:49;;;;;;;;;3.00;3.00;;;;;16.57;64.75;100382.94;5154665;27;8833;-84
2021/05/21 03:58:46;;;;;;;;;2.25;2.25;;;;;16.57;63.50;100385.75;5131706;27;8865;-82
2021/05/21 04:01:43;;;;;;;;;2.50;2.50;;;;;16.71;63.76;100387.91;5134965;27;10940;-84
2021/05/21 04:04:39;;;;;;;;;3.00;3.00;;;;;16.83;64.21;100386.88;5137310;27;8839;-85
2021/05/21 04:07:34;;;;;;;;;3.50;3.50;;;;;16.76;63.57;100381.19;5134347;27;8888;-80
2021/05/21 04:10:32;;;;;;;;;2.00;2.00;;;;;17.05;61.96;100371.16;5127331;27;8831;-79
2021/05/21 04:13:27;;;;;;;;;2.00;2.00;;;;;16.67;60.67;100376.69;5119259;27;8859;-81
2021/05/21 04:16:24;;;;;;;;;2.00;2.00;;;;;16.77;61.86;100380.81;5140043;27;8836;-84
2021/05/21 04:19:19;;;;;;;;;1.00;1.00;;;;;17.17;60.92;100385.66;5152598;27;8821;-73
2021/05/21 04:22:15;;;;;;;;;1.00;1.00;;;;;17.15;58.36;100387.25;5154778;27;8817;-81
2021/05/21 04:25:11;;;;;;;;;2.00;2.00;;;;;17.20;56.14;100386.91;5140680;27;8867;-79
2021/05/21 04:28:07;;;;;;;;;2.00;2.00;;;;;17.38;60.34;100401.84;5154884;27;8853;-79
2021/05/21 04:31:02;;;;;;;;;1.25;1.25;;;;;17.43;57.27;100395.13;5140500;27;8844;-78
2021/05/21 04:33:58;;;;;;;;;1.00;1.00;;;;;17.16;55.71;100389.66;5154621;27;8873;-81
2021/05/21 04:36:54;;;;;;;;;2.00;2.00;;;;;17.18;56.53;100395.69;5154285;27;8939;-83
2021/05/21 04:39:50;;;;;;;;;3.00;2.50;;;;;17.15;57.91;100401.22;5154564;27;8825;-83
2021/05/21 04:42:45;;;;;;;;;1.75;1.75;;;;;17.34;56.03;100403.81;5142494;27;9652;-81
2021/05/21 04:45:41;;;;;;;;;2.00;2.00;;;;;17.24;53.51;100405.31;5154059;27;8841;-81
2021/05/21 04:48:36;;;;;;;;;0.00;0.00;;;;;17.17;53.99;100398.81;5140059;27;8836;-82
2021/05/21 04:51:32;;;;;;;;;1.50;1.50;;;;;17.73;53.29;100400.63;5154884;27;8841;-84
2021/05/21 04:54:29;;;;;;;;;0.00;0.00;;;;;17.47;52.22;100396.75;5140929;27;8845;-84
2021/05/21 04:57:24;;;;;;;;;2.00;2.00;;;;;17.98;54.11;100407.22;5153902;27;8837;-81
2021/05/21 05:00:20;;;;;;;;;2.00;2.00;;;;;17.85;53.41;100408.69;5141061;27;8812;-81
2021/05/21 05:03:21;;;;;;;;;1.00;1.00;;;;;18.10;54.81;100422.91;5140123;27;8829;-80
2021/05/21 05:06:17;;;;;;;;;1.00;1.00;;;;;17.77;52.24;100437.81;5154491;27;8880;-80
2021/05/21 05:09:14;;;;;;;;;1.00;1.00;;;;;17.70;51.37;100437.69;5127321;27;8867;-80
2021/05/21 05:12:10;;;;;;;;;2.00;2.00;;;;;17.36;51.50;100432.19;5153690;27;8889;-86
2021/05/21 05:15:07;;;;;;;;;4.75;3.50;;;;;17.23;52.78;100425.25;5140080;27;8860;-80
2021/05/21 05:18:03;;;;;;;;;0.75;0.75;;;;;17.62;51.56;100434.03;5140800;27;8840;-81
2021/05/21 05:20:58;;;;;;;;;1.00;1.00;;;;;17.65;54.79;100443.66;5139685;27;8866;-83
2021/05/21 05:23:56;;;;;;;;;1.00;1.00;;;;;17.49;51.11;100433.53;5140190;27;8813;-84
2021/05/21 05:26:52;;;;;;;;;1.00;1.00;;;;;17.49;53.08;100439.13;5131995;27;8867;-85
2021/05/21 05:29:47;;;;;;;;;0.75;0.75;;;;;17.48;54.04;100445.91;5144015;27;8829;-81
2021/05/21 05:32:43;;;;;;;;;0.75;0.75;;;;;17.54;53.19;100451.94;5143890;27;8836;-82
2021/05/21 05:35:39;;;;;;;;;1.50;1.50;;;;;17.61;50.71;100454.81;5159124;27;9649;-85
2021/05/21 05:38:35;;;;;;;;;2.00;2.00;;;;;17.88;51.82;100458.31;5157466;27;8944;-80
2021/05/21 05:41:30;;;;;;;;;1.50;1.50;;;;;18.12;50.95;100456.91;5141360;27;8833;-87
2021/05/21 05:44:26;;;;;;;;;3.00;2.00;;;;;17.99;50.31;100463.97;5149555;27;8833;-83
2021/05/21 05:47:22;;;;;;;;;1.00;1.00;;;;;18.06;50.75;100470.44;5136114;27;9599;-81
2021/05/21 05:50:17;;;;;;;;;1.00;0.75;;;;;18.35;48.81;100459.47;5122942;27;8874;-76
2021/05/21 05:53:13;;;;;;;;;2.00;1.25;;;;;18.02;48.76;100475.22;5144764;27;8871;-78
2021/05/21 05:56:10;;;;;;;;;1.50;1.50;;;;;18.01;50.42;100484.78;5122917;27;8899;-78
2021/05/21 05:59:06;;;;;;;;;3.00;3.00;;;;;17.86;49.90;100473.84;5136045;27;9567;-76
2021/05/21 06:02:03;;;;;;;;;1.00;1.00;;;;;17.63;50.95;100471.19;5136444;27;8831;-74
2021/05/21 06:05:03;;;;;;;;;2.00;2.00;;;;;17.83;51.22;100469.84;5122736;27;8839;-78
2021/05/21 06:08:01;;;;;;;;;4.50;4.50;;;;;18.05;51.54;100476.44;5135144;27;8835;-77
2021/05/21 06:10:57;;;;;;;;;3.00;3.00;;;;;18.05;51.50;100479.22;5123158;27;8823;-77
2021/05/21 06:13:55;;;;;;;;;2.00;2.00;;;;;18.14;51.04;100481.69;5134988;27;8851;-77
2021/05/21 06:16:50;;;;;;;;;1.50;1.50;;;;;18.19;51.67;100490.53;5119045;27;8835;-78
2021/05/21 06:19:47;;;;;;;;;0.75;0.75;;;;;18.16;50.90;100496.09;5136356;27;8873;-76
2021/05/21 06:22:43;;;;;;;;;0.25;0.25;;;;;18.01;50.78;100493.16;5135760;27;8831;-77
2021/05/21 06:25:52;;;;;;;;;2.00;2.00;;;;;18.21;51.58;100501.34;5125574;27;8875;-77
2021/05/21 06:28:56;;;;;;;;;1.00;1.00;;;;;18.52;50.91;100503.59;5122568;27;8839;-77
2021/05/21 06:31:52;;;;;;;;;1.00;1.00;;;;;18.07;50.58;100507.63;5150331;27;8851;-76
2021/05/21 06:34:50;;;;;;;;;1.00;1.00;;;;;18.00;50.40;100519.53;5122514;27;8859;-78
2021/05/21 06:37:50;;;;;;;;;2.00;2.00;;;;;17.92;50.73;100517.06;5121194;27;8854;-79
2021/05/21 06:40:46;;;;;;;;;0.00;0.00;;;;;18.03;50.78;100504.81;5134452;27;8827;-77
2021/05/21 06:43:42;;;;;;;;;4.75;4.75;;;;;18.63;49.92;100512.03;5131792;27;8837;-77
2021/05/21 06:46:38;;;;;;;;;3.00;3.00;;;;;18.61;49.58;100522.84;5139930;27;8897;-77
2021/05/21 06:49:38;;;;;;;;;4.00;4.00;;;;;18.71;49.61;100530.56;5135325;27;8889;-78
2021/05/21 06:52:35;;;;;;;;;25.75;17.75;;;;;18.92;49.54;100529.06;5155823;27;8825;-78
2021/05/21 06:55:30;;;;;;;;;4.50;4.50;;;;;19.01;48.86;100521.91;5155653;27;8837;-82
2021/05/21 06:58:27;;;;;;;;;3.00;3.00;;;;;19.27;48.91;100529.25;5142524;27;8844;-78
2021/05/21 07:01:22;;;;;;;;;1.75;1.75;;;;;18.82;49.00;100527.81;5153836;27;8833;-79
2021/05/21 07:04:18;;;;;;;;;2.25;2.25;;;;;18.91;49.73;100531.06;5146520;27;8839;-78
2021/05/21 07:07:15;;;;;;;;;5.25;4.00;;;;;18.91;49.70;100530.28;5140944;27;8860;-78
2021/05/21 07:10:12;;;;;;;;;3.00;3.00;;;;;19.25;48.57;100547.69;5150722;27;8832;-79
2021/05/21 07:13:11;;;;;;;;;11.00;9.75;;;;;19.24;48.79;100548.84;5141973;27;8890;-77
2021/05/21 07:16:09;;;;;;;;;2.00;2.00;;;;;18.81;48.52;100543.03;5120934;27;8912;-76
2021/05/21 07:19:09;;;;;;;;;5.00;3.00;;;;;19.37;48.71;100550.13;5120351;27;8927;-78
2021/05/21 07:22:06;;;;;;;;;4.00;3.25;;;;;19.45;47.87;100548.94;5134476;27;8823;-78
2021/05/21 07:25:01;;;;;;;;;1.75;1.75;;;;;19.29;47.79;100560.50;5134680;27;8865;-78
2021/05/21 07:27:57;;;;;;;;;4.00;4.00;;;;;19.90;47.59;100546.72;5120012;27;9654;-78
2021/05/21 07:30:53;;;;;;;;;1.50;1.50;;;;;20.00;47.19;100557.16;5134277;27;9579;-80
2021/05/21 07:33:49;;;;;;;;;2.25;2.25;;;;;20.14;46.35;100545.94;5134295;27;8836;-77
2021/05/21 07:36:44;;;;;;;;;5.25;5.25;;;;;20.49;46.07;100552.81;5134437;27;8824;-76
2021/05/21 07:39:42;;;;;;;;;0.75;0.75;;;;;20.54;45.83;100558.03;5120752;27;8913;-76
2021/05/21 07:42:38;;;;;;;;;1.00;1.00;;;;;20.82;46.05;100566.44;5134096;27;8848;-75
2021/05/21 07:45:34;;;;;;;;;2.00;2.00;;;;;21.25;44.93;100569.16;5134029;27;9593;-78
2021/05/21 07:48:29;;;;;;;;;2.75;2.75;;;;;21.77;43.58;100577.78;5133755;27;8821;-76
2021/05/21 07:51:25;;;;;;;;;1.00;1.00;;;;;21.38;43.51;100580.78;5133992;27;9554;-77
2021/05/21 07:54:23;;;;;;;;;9.25;8.00;;;;;21.13;43.43;100578.00;5134757;27;8847;-78
2021/05/21 07:57:19;;;;;;;;;3.75;3.50;;;;;21.29;45.55;100586.84;5133743;27;8853;-77
2021/05/21 08:00:15;;;;;;;;;1.00;1.00;;;;;21.44;43.79;100581.97;5120205;27;8830;-77
2021/05/21 08:03:15;;;;;;;;;1.50;1.50;;;;;21.38;43.59;100586.41;5133797;27;8904;-79
2021/05/21 08:06:10;;;;;;;;;1.00;1.00;;;;;21.76;43.28;100589.47;5119986;27;8920;-77
2021/05/21 08:09:06;;;;;;;;;1.00;1.00;;;;;21.92;43.31;100586.97;5120021;27;8862;-78
2021/05/21 08:12:04;;;;;;;;;1.60;1.60;;;;;21.56;43.33;100586.34;5132723;27;8842;-79
2021/05/21 08:15:00;;;;;;;;;1.00;1.00;;;;;21.60;43.34;100589.94;5133392;27;8831;-78
2021/05/21 08:17:55;;;;;;;;;0.20;0.20;;;;;21.32;43.07;100591.66;5133288;27;8831;-77
2021/05/21 08:20:51;;;;;;;;;2.60;2.60;;;;;21.35;44.31;100590.03;5134452;27;8897;-78
2021/05/21 08:23:46;;;;;;;;;2.80;2.80;;;;;21.10;44.29;100598.53;5133757;27;8865;-77
2021/05/21 08:26:42;;;;;;;;;2.75;2.75;;;;;21.36;44.57;100586.81;5148564;27;8833;-77
2021/05/21 08:29:39;;;;;;;;;15.75;9.25;;;;;21.90;43.76;100603.47;5127446;27;8885;-77
2021/05/21 08:32:36;;;;;;;;;1.40;1.40;;;;;21.82;43.14;100601.91;5140577;27;8874;-78
2021/05/21 08:35:32;;;;;;;;;0.80;0.80;;;;;21.16;43.87;100605.31;5139746;27;8909;-78
2021/05/21 08:38:27;;;;;;;;;0.00;0.00;;;;;21.53;44.22;100604.03;5142365;27;8901;-75
2021/05/21 08:41:25;;;;;;;;;0.80;0.80;;;;;21.89;44.10;100615.94;5133313;27;8843;-78
2021/05/21 08:44:21;;;;;;;;;35.25;25.75;;;;;21.85;44.28;100613.16;5133258;27;8831;-77
2021/05/21 08:47:18;;;;;;;;;1.20;1.20;;;;;22.19;43.86;100616.19;5119592;27;8854;-76
2021/05/21 08:50:13;;;;;;;;;0.20;0.20;;;;;21.94;42.80;100615.53;5133832;27;8835;-79
2021/05/21 08:53:09;;;;;;;;;1.80;1.40;;;;;22.44;43.28;100624.47;5153910;27;8841;-78
2021/05/21 08:56:06;;;;;;;;;1.60;1.60;;;;;22.42;42.67;100628.94;5153753;27;8829;-78
2021/05/21 08:59:02;;;;;;;;;1.60;1.60;;;;;22.20;42.60;100622.63;5139579;27;8875;-78
2021/05/21 09:01:58;;;;;;;;;1.60;0.40;;;;;21.66;42.89;100624.91;5154543;27;8908;-79
2021/05/21 09:04:57;;;;;;;;;2.80;2.80;;;;;22.22;42.89;100634.28;5153743;27;8852;-77
2021/05/21 09:07:55;;;;;;;;;1.00;1.00;;;;;22.07;43.35;100629.91;5151396;27;8817;-76
2021/05/21 09:10:50;;;;;;;;;0.20;0.20;;;;;21.82;43.09;100641.31;5132827;27;8843;-76
2021/05/21 09:13:46;;;;;;;;;4.80;1.20;;;;;21.72;43.82;100626.09;5133745;27;8865;-76
2021/05/21 09:16:44;;;;;;;;;5.40;5.40;;;;;21.90;43.74;100632.41;5132692;27;8839;-79
2021/05/21 09:19:46;;;;;;;;;1.00;1.00;;;;;22.32;42.86;100630.63;5133537;27;8850;-80
2021/05/21 09:22:57;;;;;;;;;1.40;1.40;;;;;22.26;43.31;100629.44;5133241;27;8855;-79
2021/05/21 09:25:55;;;;;;;;;0.80;0.80;;;;;22.07;42.95;100627.91;5133435;27;8870;-78
2021/05/21 09:28:53;;;;;;;;;1.00;1.00;;;;;21.81;43.20;100628.44;5133046;27;8969;-77
2021/05/21 09:31:51;;;;;;;;;0.80;0.80;;;;;21.74;43.81;100634.91;5132697;27;8827;-77
2021/05/21 09:35:01;;;;;;;;;0.40;0.40;;;;;21.99;43.67;100623.53;5118612;27;8843;-79
2021/05/21 09:37:57;;;;;;;;;4.00;2.40;;;;;22.49;43.46;100620.44;5119356;27;8835;-78
2021/05/21 09:40:53;;;;;;;;;4.60;4.60;;;;;22.57;43.84;100624.00;5118787;27;8835;-77
2021/05/21 09:43:57;;;;;;;;;0.60;0.60;;;;;22.80;42.72;100603.66;5118930;27;9599;-77
2021/05/21 09:46:53;;;;;;;;;2.60;2.60;;;;;22.94;42.29;100610.00;5118647;27;8969;-78
2021/05/21 09:49:53;;;;;;;;;3.40;3.40;;;;;23.33;42.18;100617.25;5118004;27;8835;-78
2021/05/21 09:52:48;;;;;;;;;2.80;2.80;;;;;22.82;42.78;100612.50;5118755;27;8935;-78
2021/05/21 09:55:49;;;;;;;;;3.00;3.00;;;;;22.93;43.53;100610.44;5132023;27;8831;-77
2021/05/21 09:58:46;;;;;;;;;1.80;1.80;;;;;22.88;43.12;100611.66;5133566;27;8945;-77
2021/05/21 10:01:42;;;;;;;;;1.80;1.80;;;;;23.39;41.98;100615.59;5132360;27;9599;-78
2021/05/21 10:04:38;;;;;;;;;1.00;1.00;;;;;23.55;42.41;100620.66;5132605;27;8871;-77
2021/05/21 10:07:34;;;;;;;;;3.40;3.40;;;;;23.80;42.37;100609.06;5132039;27;8855;-77
2021/05/21 10:10:29;;;;;;;;;1.60;1.60;;;;;24.18;41.49;100620.25;5133147;27;9687;-85
2021/05/21 10:13:26;;;;;;;;;2.00;2.00;;;;;23.77;40.96;100612.72;5133920;27;8856;-87
2021/05/21 10:16:22;;;;;;;;;2.00;2.00;;;;;23.50;42.15;100613.44;5145852;27;8852;-87
2021/05/21 10:19:18;;;;;;;;;0.80;0.80;;;;;23.32;41.79;100618.50;5148891;27;8845;-89
2021/05/21 10:22:18;;;;;;;;;1.00;1.00;;;;;23.09;41.96;100615.50;5135221;27;8833;-87
2021/05/21 10:25:27;;;;;;;;;1.40;1.00;;;;;23.86;42.03;100607.38;5161525;27;8824;-91
2021/05/21 10:28:27;;;;;;;;;4.60;4.60;;;;;23.68;41.87;100607.59;5133613;27;8921;-87
2021/05/21 10:31:23;;;;;;;;;1.80;1.80;;;;;23.68;40.91;100618.06;5153713;27;8836;-86
2021/05/21 10:34:21;;;;;;;;;2.00;2.00;;;;;23.96;40.98;100634.66;5127421;27;8866;-85
2021/05/21 10:37:19;;;;;;;;;5.60;4.60;;;;;23.88;41.01;100626.72;5113328;27;8874;-84
2021/05/21 10:40:22;;;;;;;;;2.00;1.60;;;;;23.56;41.91;100637.16;5123642;27;8859;-84
2021/05/21 10:43:23;;;;;;;;;1.40;1.40;;;;;23.82;41.27;100632.03;5123214;27;8855;-88
2021/05/21 10:46:21;;;;;;;;;2.00;2.00;;;;;23.66;41.09;100638.28;5123325;27;8890;-87
2021/05/21 10:49:24;;;;;;;;;2.20;2.20;;;;;23.55;41.72;100644.03;5126031;27;8934;-85
2021/05/21 10:52:21;;;;;;;;;4.60;4.60;;;;;24.01;40.01;100625.72;5136809;27;8854;-87
2021/05/21 10:55:21;;;;;;;;;8.60;8.60;;;;;24.49;40.29;100627.47;5136170;27;8955;-87
2021/05/21 10:58:30;;;;;;;;;2.00;2.00;;;;;24.10;41.15;100633.66;5123944;27;8842;-83
2021/05/21 11:01:26;;;;;;;;;1.00;1.00;;;;;24.09;40.62;100630.03;5141571;27;8829;-85
2021/05/21 11:04:29;;;;;;;;;15.80;10.60;;;;;24.37;40.54;100639.34;5142270;27;8858;-91
2021/05/21 11:07:39;;;;;;;;;1.40;1.40;;;;;24.16;40.46;100642.47;5124567;27;8841;-84
2021/05/21 11:10:36;;;;;;;;;1.80;1.80;;;;;24.40;39.81;100639.31;5143606;27;8866;-87
2021/05/21 11:13:32;;;;;;;;;0.80;0.80;;;;;24.06;41.02;100638.56;5145832;27;8839;-87
2021/05/21 11:16:32;;;;;;;;;1.80;1.80;;;;;24.13;40.70;100639.25;5123699;27;8858;-87
2021/05/21 11:19:31;;;;;;;;;1.80;1.80;;;;;24.38;40.33;100646.59;5126769;27;8855;-86
2021/05/21 11:22:28;;;;;;;;;9.00;8.40;;;;;24.87;39.47;100638.56;5123151;27;8831;-86
2021/05/21 11:25:24;;;;;;;;;13.00;12.00;;;;;24.53;40.21;100642.31;5139578;27;8915;-86
2021/05/21 11:28:19;;;;;;;;;18.60;17.60;;;;;24.60;39.28;100655.56;5124679;27;8831;-86
2021/05/21 11:31:31;;;;;;;;;7.00;4.20;;;;;24.85;38.96;100649.50;5138170;27;8927;-85
2021/05/21 11:34:29;;;;;;;;;5.00;5.00;;;;;24.86;38.70;100654.72;5128371;27;8844;-89
2021/05/21 11:37:27;;;;;;;;;10.00;10.00;;;;;25.44;38.51;100646.03;5137039;27;8879;-90
2021/05/21 11:40:24;;;;;;;;;13.20;12.60;;;;;25.33;37.89;100643.41;5124497;27;8957;-84
2021/05/21 11:43:24;;;;;;;;;7.00;7.00;;;;;25.29;39.06;100651.16;5136789;27;8978;-87
2021/05/21 11:46:21;;;;;;;;;11.40;11.40;;;;;25.41;39.07;100642.03;5123255;27;8854;-86
2021/05/21 11:49:20;;;;;;;;;4.40;4.40;;;;;25.06;38.38;100649.16;5128762;27;8890;-89
2021/05/21 11:52:16;;;;;;;;;1.20;1.20;;;;;25.58;38.60;100654.25;5124931;27;8821;-89
2021/05/21 11:55:12;;;;;;;;;0.40;0.40;;;;;25.18;38.67;100647.75;5125667;27;8833;-86
2021/05/21 11:58:19;;;;;;;;;4.80;4.00;;;;;25.62;38.19;100649.31;5125206;27;8813;-89
2021/05/21 12:01:17;;;;;;;;;6.60;6.60;;;;;25.67;37.13;100651.63;5138290;27;8865;-86
2021/05/21 12:04:15;;;;;;;;;16.20;13.60;;;;;26.08;37.09;100641.91;5126870;27;8844;-88
2021/05/21 12:07:22;;;;;;;;;3.80;3.80;;;;;25.49;37.61;100645.53;5133069;27;8829;-89
2021/05/21 12:10:17;;;;;;;;;3.40;3.40;;;;;25.84;36.98;100644.03;5124361;27;9602;-88
2021/05/21 12:13:16;;;;;;;;;6.00;5.20;;;;;25.78;36.71;100640.91;5135362;27;8841;-85
2021/05/21 12:16:19;;;;;;;;;3.80;3.80;;;;;25.85;36.67;100644.84;5141293;27;8887;-86
2021/05/21 12:19:19;;;;;;;;;0.60;0.60;;;;;25.56;36.83;100645.38;5135622;27;8836;-88
2021/05/21 12:22:14;;;;;;;;;2.00;2.00;;;;;25.82;36.79;100651.38;5135350;27;8846;-87
2021/05/21 12:25:18;;;;;;;;;2.80;2.80;;;;;25.88;38.04;100646.78;5134771;27;8839;-88
2021/05/21 12:28:15;;;;;;;;;1.00;1.00;;;;;25.86;36.62;100646.44;5131286;27;8843;-86
2021/05/21 12:31:11;;;;;;;;;3.00;3.00;;;;;26.56;36.89;100648.91;5143923;27;8860;-86
2021/05/21 12:34:07;;;;;;;;;1.20;1.20;;;;;26.69;36.87;100640.53;5130259;27;8835;-87
2021/05/21 12:37:07;;;;;;;;;3.20;3.20;;;;;26.56;35.90;100649.72;5121396;27;8816;-88
2021/05/21 12:40:03;;;;;;;;;2.80;2.00;;;;;26.14;36.57;100645.78;5120368;27;8867;-88
2021/05/21 12:43:05;;;;;;;;;0.80;0.80;;;;;26.42;36.02;100643.59;5123233;27;9014;-88
2021/05/21 12:46:04;;;;;;;;;1.20;1.20;;;;;25.66;36.23;100652.88;5129591;27;9009;-82
2021/05/21 12:49:06;;;;;;;;;4.20;4.20;;;;;25.51;36.72;100655.19;5142755;27;8826;-86
2021/05/21 12:52:06;;;;;;;;;6.80;3.40;;;;;26.06;36.55;100658.53;5151950;27;8822;-87
2021/05/21 12:55:13;;;;;;;;;2.00;2.00;;;;;26.61;36.55;100662.59;5120957;27;8843;-85
2021/05/21 12:58:24;;;;;;;;;3.40;3.40;;;;;25.92;36.68;100659.66;5133424;27;8849;-85
2021/05/21 13:01:20;;;;;;;;;1.00;1.00;;;;;25.17;37.86;100663.13;5137168;27;8849;-89
2021/05/21 13:04:19;;;;;;;;;2.00;2.00;;;;;24.88;38.34;100662.78;5132628;27;8827;-85
2021/05/21 13:07:15;;;;;;;;;1.80;1.80;;;;;23.90;40.33;100656.13;5120824;27;8839;-87
2021/05/21 13:10:12;;;;;;;;;2.80;2.80;;;;;24.23;40.12;100660.13;5121420;27;8843;-85
2021/05/21 13:13:09;;;;;;;;;3.40;2.40;;;;;23.87;40.33;100671.09;5121834;27;8873;-86
2021/05/21 13:16:04;;;;;;;;;2.80;2.80;;;;;24.19;40.33;100670.66;5120526;27;8831;-85
2021/05/21 13:19:00;;;;;;;;;1.60;1.60;;;;;24.61;39.73;100657.97;5122606;27;8823;-82
2021/05/21 13:22:17;;;;;;;;;4.00;3.60;;;;;24.78;39.26;100661.75;5133782;27;8866;-83
2021/05/21 13:25:13;;;;;;;;;7.60;7.60;;;;;24.84;39.75;100670.50;5121911;27;9664;-84
2021/05/21 13:28:09;;;;;;;;;13.00;10.00;;;;;25.27;39.55;100653.63;5140021;27;8965;-85
2021/05/21 13:31:06;;;;;;;;;10.00;10.00;;;;;24.91;40.14;100664.75;5115092;28;8803;-85
2021/05/21 13:34:01;;;;;;;;;7.00;7.00;;;;;24.42;41.05;100666.34;5116387;28;8859;-85
2021/05/21 13:36:58;;;;;;;;;15.40;11.40;;;;;24.55;41.62;100654.03;5126025;28;8886;-83
2021/05/21 13:39:55;;;;;;;;;5.00;5.00;;;;;24.44;41.16;100659.03;5120139;27;9032;-86
2021/05/21 13:42:50;;;;;;;;;6.00;6.00;;;;;24.75;41.07;100661.78;5110971;28;8852;-86
2021/05/21 13:45:46;;;;;;;;;9.20;9.20;;;;;25.28;40.09;100657.25;5101249;27;8888;-85
2021/05/21 13:48:41;;;;;;;;;9.40;9.40;;;;;25.48;40.28;100678.72;5113460;28;8853;-82
2021/05/21 13:51:37;;;;;;;;;12.00;11.00;;;;;24.89;40.25;100672.88;5115981;28;8875;-84